Flight Track Log - Related Links

Times and Time Zones

All times are in EST time to prevent confusion due to time zone crossing. See the N53NW flight status page for this flight to view local times or setup timezone preferences in your user account.

Time Position Orientation Groundspeed Altitude Reporting Facility
EST Latitude Longitude Course Direction KTS MPH feet Rate Location/Type
Fri 11:35:36 AM 30.0589 -90.0319 253° West 194 223 800  Level Houston Center
Fri 11:36:17 AM 30.0958 -90.0347 356° North 225 259 2,100 2,250 Climbing Houston Center
Fri 11:36:32 AM 30.1097 -90.0539 310° West 245 282 2,900 3,375 Climbing Houston Center
Fri 11:37:21 AM 30.0939 -90.1011 249° West 244 281 5,700 4,426 Climbing Houston Center
Fri 11:37:33 AM 30.0828 -90.1200 236° Southwest 238 274 7,400 4,600 Climbing Houston Center
Fri 11:38:21 AM 30.0603 -90.1614 238° Southwest 228 262 10,300 3,892 Climbing Houston Center
Fri 11:39:24 AM 30.0172 -90.2256 232° Southwest 213 245 14,600 3,496 Climbing Houston Center
Fri 11:40:28 AM 29.9742 -90.2764 226° Southwest 219 252 17,700 2,714 Climbing Houston Center
Fri 11:41:00 AM 29.8685 -90.5212 253° West  Level FlightAware Approximate
Fri 11:41:30 AM 29.9283 -90.3286 225° Southwest 230 265 20,300  Level Houston Center
Fri 11:42:29 AM 29.8844 -90.3831 227° Southwest 232 267 23,000 2,732 Climbing Houston Center
Fri 11:43:33 AM 29.8381 -90.4411 227° Southwest 243 280 25,900 1,417 Climbing Houston Center
Fri 11:44:36 AM 29.8128 -90.5364 253° West 273 314 26,000 48 Climbing Houston Center
Fri 11:45:37 AM 29.7956 -90.6333 258° West 305 351 26,000  Level Houston Center
Fri 11:46:40 AM 29.7781 -90.7225 257° West 290 334 26,000  Level Houston Center
Fri 11:47:40 AM 29.7603 -90.8067 256° West 275 316 26,000  Level Houston Center
Fri 11:48:43 AM 29.7433 -90.8950 258° West 282 325 26,000  Level Houston Center
Fri 11:49:45 AM 29.7261 -90.9822 257° West 280 322 26,000  Level Houston Center
Fri 11:50:49 AM 29.7050 -91.0875 257° West 282 325 26,000  Level Houston Center
Fri 11:51:49 AM 29.6869 -91.1747 257° West 282 325 26,000  Level Houston Center
Fri 11:52:53 AM 29.6706 -91.2628 258° West 283 326 26,000  Level Houston Center
Fri 11:53:53 AM 29.6511 -91.3503 256° West 284 327 26,000  Level Houston Center
Fri 11:54:57 AM 29.6342 -91.4378 257° West 282 325 26,000  Level Houston Center
Fri 11:55:57 AM 29.6175 -91.5211 257° West 272 313 26,000  Level Houston Center
Fri 11:57:01 AM 29.5958 -91.6236 256° West 274 315 26,000  Level Houston Center
Fri 11:58:04 AM 29.5781 -91.7089 257° West 274 315 26,000  Level Houston Center
Fri 11:59:05 AM 29.5619 -91.7914 257° West 272 313 26,000  Level Houston Center
Fri 12:00:09 PM 29.5436 -91.8778 256° West 276 318 26,000  Level Houston Center
Fri 12:01:09 PM 29.5261 -91.9636 257° West 278 320 26,000  Level Houston Center
Fri 12:02:10 PM 29.5039 -92.0683 256° West 282 325 26,000  Level Houston Center
Fri 12:03:14 PM 29.4864 -92.1558 257° West 281 323 26,000  Level Houston Center
Fri 12:04:17 PM 29.4675 -92.2425 256° West 281 323 26,000  Level Houston Center
Fri 12:05:17 PM 29.4494 -92.3297 257° West 282 325 26,000  Level Houston Center
Fri 12:06:21 PM 29.4306 -92.4158 256° West 279 321 26,000  Level Houston Center
Fri 12:07:23 PM 29.4133 -92.5022 257° West 279 321 26,000  Level Houston Center
Fri 12:08:26 PM 29.3911 -92.6064 256° West 280 322 26,000  Level Houston Center
Fri 12:09:28 PM 29.3722 -92.6936 256° West 281 323 26,000  Level Houston Center
Fri 12:10:30 PM 29.3536 -92.7808 256° West 282 325 26,000  Level Houston Center
Fri 12:11:30 PM 29.3333 -92.8703 255° West 288 331 26,000  Level Houston Center
Fri 12:12:35 PM 29.3158 -92.9578 257° West 284 327 26,000  Level Houston Center
Fri 12:13:35 PM 29.2928 -93.0617 256° West 281 323 26,000 -387 Level Houston Center
Fri 12:14:39 PM 29.2733 -93.1503 256° West 286 329 25,200 -864 Descending Houston Center
Fri 12:15:40 PM 29.2572 -93.2353 258° West 277 319 24,200 -590 Descending Houston Center
Fri 12:16:41 PM 29.2578 -93.3208 270° West 269 310 24,000 -97 Descending Houston Center
Fri 12:17:44 PM 29.2586 -93.4097 271° West 275 316 24,000  Level Houston Center
Fri 12:18:45 PM 29.2597 -93.5006 271° West 281 323 24,000  Level Houston Center
Fri 12:19:47 PM 29.2611 -93.6056 271° West 277 319 24,000  Level Houston Center
Fri 12:20:51 PM 29.2628 -93.6953 271° West 280 322 24,000 -576 Level Houston Center
Fri 12:21:52 PM 29.2636 -93.7858 271° West 283 326 22,800 -1,258 Descending Houston Center
Fri 12:22:55 PM 29.2639 -93.8756 270° West 282 325 21,400 -1,355 Descending Houston Center
Fri 12:23:56 PM 29.2647 -93.9625 271° West 277 319 20,000 -1,535 Descending Houston Center
Fri 12:24:21 PM 29.2631 -94.0111 268° West 271 312 19,200 -1,313 Descending Houston Center
Fri 12:25:00 PM 29.2653 -94.0478 274° West 271 312 18,600 -1,254 Descending Houston Center
Fri 12:25:28 PM 29.2644 -94.1069 269° West 267 307 17,800 -774 Descending Houston Center
Fri 12:26:02 PM 29.2653 -94.1317 272° West 267 307 17,800 -828 Level Houston Center
Fri 12:26:26 PM 29.2653 -94.1786 270° West 261 300 17,000 -1,600 Descending Houston Center
Fri 12:27:02 PM 29.2678 -94.2306 273° West 262 302 16,200 -1,385 Descending Houston Center
Fri 12:27:31 PM 29.2664 -94.2719 268° West 260 299 15,500 -1,200 Descending Houston Center
Fri 12:28:07 PM 29.2672 -94.3122 271° West 259 298 14,900 -1,217 Descending Houston Center
Fri 12:28:40 PM 29.2647 -94.3608 267° West 256 295 14,100 -1,300 Descending Houston Center
Fri 12:29:07 PM 29.2678 -94.3936 276° West 257 296 13,600 -1,222 Descending Houston Center
Fri 12:29:34 PM 29.2658 -94.4350 267° West 256 295 13,000 -563 Descending Houston Center
Fri 12:30:11 PM 29.2681 -94.4742 274° West 255 293 13,000  Level Houston Center
Fri 12:30:41 PM 29.2875 -94.5258 293° West 270 311 13,000 -300 Level Houston Center
Fri 12:31:11 PM 29.3014 -94.5506 303° West 267 307 12,700 -1,200 Descending Houston Center
Fri 12:31:41 PM 29.3244 -94.6025 297° West 267 307 11,800 -1,406 Descending Houston Center
Fri 12:32:15 PM 29.3431 -94.6397 300° West 267 307 11,200 -1,125 Descending Houston Center
Fri 12:32:45 PM 29.3586 -94.6750 297° West 254 292 10,600 -1,100 Descending Houston Center
Fri 12:33:15 PM 29.3781 -94.7092 303° West 256 295 10,100 -600 Descending Houston Center
Fri 12:33:45 PM 29.3953 -94.7472 297° West 253 291 10,000 -95 Descending Houston Center
Fri 12:34:18 PM 29.4122 -94.7783 302° West 253 291 10,000 -590 Level Houston Center
Fri 12:34:46 PM 29.4289 -94.8150 298° West 249 287 9,400 -1,313 Descending Houston Center
Fri 12:35:22 PM 29.4458 -94.8475 301° West 249 287 8,600 -1,292 Descending Houston Center
Fri 12:35:51 PM 29.4633 -94.8875 297° West 248 285 8,000 -581 Descending Houston Center
Fri 12:36:24 PM 29.4792 -94.9158 303° West 247 284 8,000 -353 Level Houston Center
Fri 12:36:42 PM 29.4944 -94.9508 297° West 244 281 7,700 -1,082 Descending Houston Center
Fri 12:37:25 PM 29.5128 -94.9853 301° West 248 285 6,900 -1,548 Descending Houston Center
Fri 12:37:44 PM 29.5283 -95.0211 297° West 257 296 6,100 -885 Descending Houston Center
Fri 12:38:26 PM 29.5550 -95.0717 301° West 256 295 6,000 -98 Descending Houston Center
Fri 12:38:45 PM 29.5647 -95.0933 297° West 248 285 6,000  Level Houston Center
Fri 12:39:30 PM 29.5881 -95.1383 301° West 247 284 6,000  Level Houston Center
Fri 12:39:48 PM 29.5919 -95.1597 282° West 233 268 6,000  Level Houston Center
Fri 12:40:31 PM 29.5767 -95.2067 249° West 228 262 6,000  Level Houston Center
Fri 12:40:49 PM 29.5667 -95.2278 241° Southwest 215 247 6,000  Level Houston Center
Fri 12:41:35 PM 29.5414 -95.2611 229° Southwest 216 249 6,000  Level Houston Center
Fri 12:41:50 PM 29.5269 -95.2758 222° Southwest 208 239 6,000 -1,100 Level Houston Center
Fri 12:42:35 PM 29.4994 -95.3064 224° Southwest 209 241 4,900 -1,700 Descending Houston Center
Fri 12:42:50 PM 29.4833 -95.3242 224° Southwest 211 243 4,300 -774 Descending Houston Center
Fri 12:43:37 PM 29.4594 -95.3519 225° Southwest 206 237 4,100 -290 Descending Houston Center
Fri 12:43:52 PM 29.4450 -95.3650 218° Southwest 168 193 4,000 -95 Descending Houston Center
Fri 12:44:40 PM 29.4242 -95.3892 225° Southwest 183 211 4,000 -300 Level Houston Center
Fri 12:44:52 PM 29.4181 -95.4136 254° West 202 232 3,700 -885 Descending Houston Center
Fri 12:45:41 PM 29.4436 -95.4542 306° West 203 234 3,100 -590 Descending Houston Center
Fri 12:45:53 PM 29.4500 -95.4650 304° West 193 222 3,100  Level Houston Center
Fri 12:46:45 PM 29.4875 -95.4561 12° North 192 221 3,100  Level Houston Center
Fri 12:46:51 PM 29.4908 -95.4531 39° Northeast 183 211 3,100 -393 Level Houston Center
Fri 12:47:46 PM 29.5206 -95.4183 45° Northeast 173 199 2,700 -517 Descending Houston Center
Fri 12:47:49 PM 29.5250 -95.4128 47° Northeast 162 186 2,600 -656 Descending Houston Center
Fri 12:48:50 PM 29.5497 -95.3839 45° Northeast 162 186 2,000 -469 Descending Houston Center
Fri 12:48:53 PM 29.5536 -95.3806 37° Northeast 134 154 2,100 -400 Climbing Houston Center
Fri 12:49:50 PM 29.5775 -95.3536 44° Northeast 148 170 1,600 -500 Descending Houston Center
Fri 12:49:53 PM 29.5819 -95.3483 46° Northeast 141 162 1,600 -381 Level Houston Center
Fri 12:50:53 PM 29.6028 -95.3253 44° Northeast 137 158 1,200 -541 Descending Houston Center
Fri 12:51:55 PM 29.6269 -95.2986 44° Northeast 112 129 500 -706 Descending Houston Center
Fri 12:52:01 PM 29.6297 -95.2969 28° Northeast 112 129 400 -393 Descending Houston Center
Fri 12:52:56 PM 29.6436 -95.2806 46° Northeast 107 123 100 -327 Descending Houston Center

Login

Don't have an account? Register now (free) for customized features, flight alerts, and more!